Time;durP1;ratioP1;P1;durP2;ratioP2;P2;SDS_P1;SDS_P2;PMS_P1;PMS_P2;Temp;Humidity;BMP_temperature;BMP_pressure;BME280_temperature;BME280_humidity;BME280_pressure;Samples;Min_cycle;Max_cycle;Signal;HPM_P1;HPM_P2
2023/09/13 00:01:40;;;;;;;8.77;6.67;;;18.10;99.90;;;;;;4966115;28;20313;-59
2023/09/13 00:04:06;;;;;;;12.40;6.70;;;18.10;99.90;;;;;;4968829;28;20986;-59
2023/09/13 00:06:31;;;;;;;9.27;6.27;;;18.10;99.90;;;;;;4963812;28;20178;-58
2023/09/13 00:08:57;;;;;;;11.20;7.00;;;18.10;99.90;;;;;;4959526;28;20190;-59
2023/09/13 00:11:23;;;;;;;7.20;6.13;;;18.10;99.90;;;;;;4961097;28;20675;-60
2023/09/13 00:13:48;;;;;;;10.50;6.50;;;18.10;99.90;;;;;;4963360;28;20270;-59
2023/09/13 00:16:14;;;;;;;10.90;6.70;;;18.10;99.90;;;;;;4967010;28;20243;-59
2023/09/13 00:18:40;;;;;;;7.33;5.63;;;18.10;99.90;;;;;;4961423;28;20185;-59
2023/09/13 00:21:10;;;;;;;8.37;7.03;;;18.10;99.90;;;;;;4962353;28;20460;-59
2023/09/13 00:23:35;;;;;;;8.17;5.83;;;18.10;99.90;;;;;;4962983;28;20209;-59
2023/09/13 00:26:01;;;;;;;9.27;5.87;;;18.10;99.90;;;;;;4963128;28;20524;-58
2023/09/13 00:28:27;;;;;;;9.47;6.40;;;18.10;99.90;;;;;;4965189;28;20181;-59
2023/09/13 00:30:52;;;;;;;9.03;6.90;;;18.10;99.90;;;;;;4960606;28;20194;-59
2023/09/13 00:33:18;;;;;;;7.97;6.13;;;18.10;99.90;;;;;;4962800;28;20610;-59
2023/09/13 00:35:44;;;;;;;24.87;7.23;;;18.10;99.90;;;;;;4960933;28;20274;-59
2023/09/13 00:38:09;;;;;;;10.00;6.33;;;18.10;99.90;;;;;;4955015;28;20668;-59
2023/09/13 00:40:35;;;;;;;10.33;6.23;;;18.10;99.90;;;;;;4965537;28;20252;-58
2023/09/13 00:43:02;;;;;;;11.93;6.40;;;18.20;99.90;;;;;;4960080;28;20205;-59
2023/09/13 00:45:31;;;;;;;10.70;7.10;;;18.20;99.90;;;;;;4963954;28;20860;-59
2023/09/13 00:47:58;;;;;;;11.73;6.43;;;18.20;99.90;;;;;;4953245;28;20422;-59
2023/09/13 00:50:24;;;;;;;8.00;6.10;;;18.20;99.90;;;;;;4968888;28;20437;-58
2023/09/13 00:52:50;;;;;;;11.77;6.30;;;18.20;99.90;;;;;;4969703;28;20421;-60
2023/09/13 00:55:18;;;;;;;9.00;5.97;;;18.20;99.90;;;;;;4967920;28;20437;-60
2023/09/13 00:57:45;;;;;;;7.03;5.47;;;18.20;99.90;;;;;;4968912;28;20440;-60
2023/09/13 01:00:12;;;;;;;11.40;7.23;;;18.20;99.90;;;;;;4970376;28;20440;-60
2023/09/13 01:02:40;;;;;;;10.47;6.87;;;18.20;99.90;;;;;;4965952;28;20519;-59
2023/09/13 01:05:12;;;;;;;12.50;7.53;;;18.20;99.90;;;;;;4965966;28;20569;-59
2023/09/13 01:07:40;;;;;;;12.20;8.07;;;18.20;99.90;;;;;;4968891;28;20446;-60
2023/09/13 01:10:07;;;;;;;10.40;7.20;;;18.10;99.90;;;;;;4966113;28;20445;-59
2023/09/13 01:12:33;;;;;;;10.57;7.83;;;18.00;99.90;;;;;;4962700;28;20941;-59
2023/09/13 01:14:59;;;;;;;10.23;7.90;;;18.00;99.90;;;;;;4968572;28;20524;-60
2023/09/13 01:17:54;;;;;;;10.07;7.90;;;17.90;99.90;;;;;;4966638;28;20173;-59
2023/09/13 01:20:44;;;;;;;12.73;7.90;;;17.80;99.90;;;;;;4960674;28;20444;-60
2023/09/13 01:23:32;;;;;;;12.70;6.93;;;17.80;99.90;;;;;;4961413;28;20591;-59
2023/09/13 01:26:01;;;;;;;10.97;7.10;;;17.70;99.90;;;;;;4959740;28;20429;-60
2023/09/13 01:28:46;;;;;;;8.60;6.90;;;17.70;99.90;;;;;;4961707;28;20516;-59
2023/09/13 01:31:17;;;;;;;12.40;7.63;;;17.70;99.90;;;;;;4960058;28;20476;-59
2023/09/13 01:33:44;;;;;;;9.97;8.03;;;17.70;99.90;;;;;;4959905;28;20468;-60
2023/09/13 01:36:09;;;;;;;9.57;6.87;;;17.70;99.90;;;;;;4961524;28;20443;-59
2023/09/13 01:38:35;;;;;;;10.23;7.23;;;17.70;99.90;;;;;;4959812;28;20429;-60
2023/09/13 01:41:37;;;;;;;11.40;7.93;;;17.60;99.90;;;;;;4959203;28;20197;-59
2023/09/13 01:44:04;;;;;;;11.50;7.43;;;17.60;99.90;;;;;;4953828;28;20531;-60
2023/09/13 01:46:35;;;;;;;10.87;8.17;;;17.60;99.90;;;;;;4960982;28;21070;-60
2023/09/13 01:49:02;;;;;;;11.10;7.63;;;17.60;99.90;;;;;;4953809;28;20429;-60
2023/09/13 01:51:28;;;;;;;11.43;7.97;;;17.50;99.90;;;;;;4958753;28;20445;-60
2023/09/13 01:53:57;;;;;;;9.63;7.30;;;17.50;99.90;;;;;;4959652;28;20865;-59
2023/09/13 01:56:23;;;;;;;12.57;8.03;;;17.50;99.90;;;;;;4948461;28;20188;-59
2023/09/13 01:58:49;;;;;;;10.47;7.57;;;17.50;99.90;;;;;;4948312;28;20437;-60
2023/09/13 02:01:16;;;;;;;11.50;8.90;;;17.40;99.90;;;;;;4947696;28;20213;-60
2023/09/13 02:03:42;;;;;;;13.40;8.60;;;17.40;99.90;;;;;;4959400;28;20516;-59
2023/09/13 02:06:07;;;;;;;11.20;7.97;;;17.30;99.90;;;;;;4950001;28;20425;-60
2023/09/13 02:08:33;;;;;;;10.67;7.47;;;17.30;99.90;;;;;;4950589;28;20759;-60
2023/09/13 02:10:59;;;;;;;17.93;7.83;;;17.20;99.90;;;;;;4947998;28;20201;-59
2023/09/13 02:13:24;;;;;;;10.17;6.70;;;17.20;99.90;;;;;;4947990;28;20436;-59
2023/09/13 02:15:50;;;;;;;14.47;8.27;;;17.10;99.90;;;;;;4950871;28;21226;-58
2023/09/13 02:18:16;;;;;;;11.70;8.40;;;17.10;99.90;;;;;;4955956;28;20195;-60
2023/09/13 02:20:42;;;;;;;9.20;7.53;;;17.00;99.90;;;;;;4950127;28;20208;-59
2023/09/13 02:23:07;;;;;;;13.10;8.00;;;17.00;99.90;;;;;;4951333;28;20465;-58
2023/09/13 02:25:37;;;;;;;9.43;7.30;;;17.00;99.90;;;;;;4948266;28;20171;-59
2023/09/13 02:28:03;;;;;;;13.10;8.03;;;17.00;99.90;;;;;;4950172;28;20186;-59
2023/09/13 02:30:30;;;;;;;10.97;8.40;;;16.90;99.90;;;;;;4946157;28;20460;-59
2023/09/13 02:32:55;;;;;;;11.60;7.97;;;16.90;99.90;;;;;;4947196;28;20212;-60
2023/09/13 02:35:21;;;;;;;15.67;9.57;;;16.90;99.90;;;;;;4960961;28;20440;-59
2023/09/13 02:37:47;;;;;;;17.10;10.10;;;16.90;99.90;;;;;;4955704;28;20450;-59
2023/09/13 02:40:13;;;;;;;13.43;9.83;;;16.80;99.90;;;;;;4948399;28;20198;-59
2023/09/13 02:42:39;;;;;;;13.67;9.60;;;16.80;99.90;;;;;;4948963;28;20503;-60
2023/09/13 02:45:05;;;;;;;14.47;9.70;;;16.80;99.90;;;;;;4950246;28;20186;-59
2023/09/13 02:47:31;;;;;;;12.60;9.60;;;16.80;99.90;;;;;;4955546;28;20186;-59
2023/09/13 02:49:56;;;;;;;14.93;9.67;;;16.70;99.90;;;;;;4952672;28;20960;-59
2023/09/13 02:52:30;;;;;;;14.30;9.33;;;16.70;99.90;;;;;;4952364;28;20190;-60
2023/09/13 02:54:57;;;;;;;14.23;10.00;;;16.60;99.90;;;;;;4950784;28;20178;-60
2023/09/13 02:57:23;;;;;;;10.83;9.30;;;16.60;99.90;;;;;;4955023;28;20444;-60
2023/09/13 02:59:49;;;;;;;12.00;9.60;;;16.60;99.90;;;;;;4951680;28;20461;-59
2023/09/13 03:02:15;;;;;;;13.63;9.90;;;16.60;99.90;;;;;;4965216;28;20556;-59
2023/09/13 03:04:40;;;;;;;14.47;10.93;;;16.60;99.90;;;;;;4963771;28;20524;-60
2023/09/13 03:07:07;;;;;;;15.30;10.57;;;16.60;99.90;;;;;;4971010;28;20205;-59
2023/09/13 03:09:33;;;;;;;12.17;9.20;;;16.50;99.90;;;;;;4968608;28;20170;-59
2023/09/13 03:11:58;;;;;;;16.47;10.10;;;16.50;99.90;;;;;;4966201;28;20436;-59
2023/09/13 03:14:24;;;;;;;15.63;9.70;;;16.50;99.90;;;;;;4969403;28;20188;-59
2023/09/13 03:16:49;;;;;;;17.87;9.97;;;16.50;99.90;;;;;;4971617;28;20188;-60
2023/09/13 03:19:15;;;;;;;14.13;9.97;;;16.60;99.90;;;;;;4962858;28;20759;-60
2023/09/13 03:21:44;;;;;;;13.43;10.10;;;16.60;99.90;;;;;;4963751;28;20229;-59
2023/09/13 03:24:09;;;;;;;15.20;10.37;;;16.60;99.90;;;;;;4962543;28;20707;-59
2023/09/13 03:26:35;;;;;;;14.27;9.70;;;16.50;99.90;;;;;;4964207;28;20448;-59
2023/09/13 03:29:01;;;;;;;15.90;10.60;;;16.50;99.90;;;;;;4963315;28;20193;-60
2023/09/13 03:31:27;;;;;;;17.83;11.77;;;16.50;99.90;;;;;;4966270;28;20224;-59
2023/09/13 03:33:54;;;;;;;14.70;10.30;;;16.50;99.90;;;;;;4965438;28;20170;-59
2023/09/13 03:36:21;;;;;;;14.07;7.67;;;16.50;99.90;;;;;;4961642;28;20456;-59
2023/09/13 03:38:46;;;;;;;14.00;7.77;;;16.50;99.90;;;;;;4962046;28;20429;-58
2023/09/13 03:41:18;;;;;;;9.13;6.93;;;16.40;99.90;;;;;;4961188;28;21117;-59
2023/09/13 03:43:44;;;;;;;9.77;6.97;;;16.40;99.90;;;;;;4963755;28;20296;-59
2023/09/13 03:46:10;;;;;;;9.90;7.63;;;16.50;99.90;;;;;;4960245;28;20523;-60
2023/09/13 03:48:37;;;;;;;13.10;8.03;;;16.40;99.90;;;;;;4963011;28;20274;-59
2023/09/13 03:51:03;;;;;;;13.20;8.60;;;16.40;99.90;;;;;;4963083;28;20190;-59
2023/09/13 03:53:29;;;;;;;14.17;8.77;;;16.40;99.90;;;;;;4965439;28;20437;-60
2023/09/13 03:55:55;;;;;;;17.17;10.03;;;16.40;99.90;;;;;;4968703;28;20432;-59
2023/09/13 03:58:21;;;;;;;11.27;9.27;;;16.40;99.90;;;;;;4961988;28;20186;-59
2023/09/13 04:00:47;;;;;;;17.57;10.17;;;16.40;99.90;;;;;;4961399;28;20197;-59
2023/09/13 04:03:17;;;;;;;15.60;10.03;;;16.30;99.90;;;;;;4960996;28;20480;-58
2023/09/13 04:05:43;;;;;;;19.07;9.93;;;16.30;99.90;;;;;;4957335;28;20193;-58
2023/09/13 04:08:08;;;;;;;15.00;10.37;;;16.30;99.90;;;;;;4962445;28;20469;-57
2023/09/13 04:10:34;;;;;;;14.80;10.33;;;16.30;99.90;;;;;;4962515;28;20202;-58
2023/09/13 04:12:59;;;;;;;13.20;10.20;;;16.30;99.90;;;;;;4962146;28;20194;-60
2023/09/13 04:15:25;;;;;;;15.50;10.43;;;16.30;99.90;;;;;;4963348;28;20542;-60
2023/09/13 04:17:51;;;;;;;19.00;9.77;;;16.30;99.90;;;;;;4962431;28;20185;-58
2023/09/13 04:20:16;;;;;;;13.07;10.30;;;16.30;99.90;;;;;;4943967;28;20296;-59
2023/09/13 04:22:42;;;;;;;15.30;10.20;;;16.30;99.90;;;;;;4956233;28;20201;-59
2023/09/13 04:25:09;;;;;;;12.43;9.20;;;16.30;99.90;;;;;;4953958;28;20178;-59
2023/09/13 04:27:34;;;;;;;13.50;9.90;;;16.30;99.90;;;;;;4961116;28;20186;-59
2023/09/13 04:30:00;;;;;;;12.03;9.10;;;16.20;99.90;;;;;;4952584;28;20461;-59
2023/09/13 04:32:26;;;;;;;11.83;8.70;;;16.20;99.90;;;;;;4962021;28;20201;-59
2023/09/13 04:34:52;;;;;;;14.57;10.03;;;16.30;99.90;;;;;;4967898;28;20669;-58
2023/09/13 04:37:18;;;;;;;11.00;8.73;;;16.30;99.90;;;;;;4964874;28;20429;-59
2023/09/13 04:39:44;;;;;;;14.17;10.50;;;16.30;99.90;;;;;;4967987;28;20432;-58
2023/09/13 04:42:11;;;;;;;14.30;9.80;;;16.30;99.90;;;;;;4968008;28;20707;-58
2023/09/13 04:44:37;;;;;;;13.63;9.50;;;16.20;99.90;;;;;;4969963;28;20314;-59
2023/09/13 04:47:03;;;;;;;13.30;9.80;;;16.10;99.90;;;;;;4952903;28;20786;-59
2023/09/13 04:49:28;;;;;;;13.13;10.03;;;16.10;99.90;;;;;;4959324;28;20425;-58
2023/09/13 04:51:56;;;;;;;15.93;10.47;;;16.10;99.90;;;;;;4966835;28;20340;-59
2023/09/13 04:54:22;;;;;;;13.20;10.37;;;16.10;99.90;;;;;;4962666;28;20299;-59
2023/09/13 04:56:52;;;;;;;14.00;10.17;;;16.10;99.90;;;;;;4962103;28;20448;-59
2023/09/13 04:59:18;;;;;;;14.27;10.00;;;16.10;99.90;;;;;;4964054;28;20448;-57
2023/09/13 05:01:44;;;;;;;13.40;10.00;;;16.10;99.90;;;;;;4965537;28;20531;-60
2023/09/13 05:04:10;;;;;;;14.50;10.43;;;16.10;99.90;;;;;;4961409;28;20425;-58
2023/09/13 05:06:36;;;;;;;14.23;9.80;;;16.10;99.90;;;;;;4961729;28;20433;-58
2023/09/13 05:09:03;;;;;;;12.40;9.77;;;16.10;99.90;;;;;;4963625;28;20445;-59
2023/09/13 05:11:29;;;;;;;14.20;10.80;;;16.10;99.90;;;;;;4959875;28;20213;-57
2023/09/13 05:14:14;;;;;;;12.50;9.73;;;16.10;99.90;;;;;;4948619;28;20429;-56
2023/09/13 05:16:40;;;;;;;11.93;10.13;;;16.20;99.90;;;;;;4962380;28;20310;-59
2023/09/13 05:19:06;;;;;;;14.17;9.93;;;16.20;99.90;;;;;;4963101;28;20528;-59
2023/09/13 05:21:33;;;;;;;15.70;9.73;;;16.20;99.90;;;;;;4953644;28;20536;-60
2023/09/13 05:23:58;;;;;;;14.93;9.80;;;16.20;99.90;;;;;;4965149;28;20734;-60
2023/09/13 05:26:24;;;;;;;13.03;9.37;;;16.30;99.90;;;;;;4966421;28;20426;-59
2023/09/13 05:28:49;;;;;;;13.97;10.20;;;16.30;99.90;;;;;;4969342;28;20186;-59
2023/09/13 05:31:15;;;;;;;15.23;9.87;;;16.30;99.90;;;;;;4966758;28;20205;-59
2023/09/13 05:33:41;;;;;;;14.33;9.30;;;16.30;99.90;;;;;;4965142;28;20174;-59
2023/09/13 05:36:12;;;;;;;13.37;9.23;;;16.30;99.90;;;;;;4968130;28;20261;-58
2023/09/13 05:38:37;;;;;;;9.90;8.43;;;16.40;99.90;;;;;;4965502;28;20185;-59
2023/09/13 05:41:09;;;;;;;13.73;9.47;;;16.40;99.90;;;;;;4962592;28;20833;-59
2023/09/13 05:43:39;;;;;;;11.73;9.33;;;16.40;99.90;;;;;;4965648;28;20205;-60
2023/09/13 05:46:06;;;;;;;14.03;10.10;;;16.40;99.90;;;;;;4978073;28;20448;-60
2023/09/13 05:48:32;;;;;;;11.07;9.13;;;16.40;99.90;;;;;;4962435;28;20437;-59
2023/09/13 05:50:58;;;;;;;12.07;9.80;;;16.40;99.90;;;;;;4964330;28;20448;-59
2023/09/13 05:53:24;;;;;;;12.83;10.40;;;16.40;99.90;;;;;;4965327;28;20432;-60
2023/09/13 05:55:50;;;;;;;12.57;9.60;;;16.40;99.90;;;;;;4964913;28;20186;-59
2023/09/13 05:58:17;;;;;;;15.83;10.30;;;16.40;99.90;;;;;;4967614;28;20181;-58
2023/09/13 06:00:46;;;;;;;12.73;10.27;;;16.40;99.90;;;;;;4966858;28;20441;-59
2023/09/13 06:03:11;;;;;;;12.73;9.80;;;16.40;99.90;;;;;;4963092;28;20473;-59
2023/09/13 06:05:37;;;;;;;15.53;10.90;;;16.40;99.90;;;;;;4963342;28;20496;-58
2023/09/13 06:08:03;;;;;;;13.17;10.10;;;16.40;99.90;;;;;;4960347;28;20184;-59
2023/09/13 06:10:29;;;;;;;13.00;10.17;;;16.40;99.90;;;;;;4962741;28;20578;-59
2023/09/13 06:12:54;;;;;;;17.90;9.90;;;16.40;99.90;;;;;;4962439;28;20525;-58
2023/09/13 06:15:20;;;;;;;16.90;12.23;;;16.40;99.90;;;;;;4957821;28;20205;-59
2023/09/13 06:17:45;;;;;;;13.47;10.17;;;16.40;99.90;;;;;;4961190;28;20581;-57
2023/09/13 06:20:11;;;;;;;12.77;10.33;;;16.40;99.90;;;;;;4960608;28;20209;-58
2023/09/13 06:22:37;;;;;;;16.30;11.03;;;16.40;99.90;;;;;;4960699;28;20583;-58
2023/09/13 06:25:03;;;;;;;14.30;11.80;;;16.40;99.90;;;;;;4962306;28;20933;-59
2023/09/13 06:27:29;;;;;;;13.57;10.67;;;16.50;99.90;;;;;;4959048;28;20653;-59
2023/09/13 06:29:54;;;;;;;16.40;11.73;;;16.50;99.90;;;;;;4960216;28;20297;-58
2023/09/13 06:32:20;;;;;;;17.50;11.90;;;16.50;99.90;;;;;;4964854;28;20200;-58
2023/09/13 06:34:46;;;;;;;23.80;11.67;;;16.60;99.90;;;;;;4966789;28;20193;-57
2023/09/13 06:37:12;;;;;;;15.50;11.80;;;16.60;99.90;;;;;;4960243;28;21919;-57
2023/09/13 06:39:38;;;;;;;12.27;9.20;;;16.60;99.90;;;;;;4964168;28;20515;-57
2023/09/13 06:42:04;;;;;;;13.30;10.30;;;16.60;99.90;;;;;;4962669;28;20874;-57
2023/09/13 06:44:30;;;;;;;18.30;10.73;;;16.60;99.90;;;;;;4968419;28;20192;-57
2023/09/13 06:46:56;;;;;;;12.37;10.70;;;16.60;99.90;;;;;;4962357;28;20444;-57
2023/09/13 06:49:21;;;;;;;18.90;11.40;;;16.60;99.90;;;;;;4956174;28;20249;-58
2023/09/13 06:51:47;;;;;;;15.73;11.10;;;16.60;99.90;;;;;;4964852;28;20236;-59
2023/09/13 06:54:12;;;;;;;17.17;11.80;;;16.60;99.90;;;;;;4962863;28;20588;-58
2023/09/13 06:56:40;;;;;;;13.30;11.50;;;16.60;99.90;;;;;;4968111;28;20243;-57
2023/09/13 06:59:05;;;;;;;16.30;11.50;;;16.60;99.90;;;;;;4963492;28;20221;-58
2023/09/13 07:01:31;;;;;;;19.10;13.17;;;16.70;99.90;;;;;;4967801;28;21105;-57
2023/09/13 07:03:57;;;;;;;17.50;12.30;;;16.70;99.90;;;;;;4965916;28;20178;-58
2023/09/13 07:06:23;;;;;;;20.53;13.43;;;16.70;99.90;;;;;;4971938;28;20579;-57
2023/09/13 07:08:49;;;;;;;17.20;12.20;;;16.80;99.90;;;;;;4964574;28;20429;-58
2023/09/13 07:11:16;;;;;;;17.83;14.00;;;16.90;99.90;;;;;;4968609;28;20224;-57
2023/09/13 07:13:41;;;;;;;19.00;14.03;;;16.90;99.90;;;;;;4961040;28;20508;-58
2023/09/13 07:16:07;;;;;;;19.80;13.30;;;16.90;99.90;;;;;;4963072;28;20540;-58
2023/09/13 07:18:33;;;;;;;21.20;13.40;;;16.90;99.90;;;;;;4968815;28;20189;-57
2023/09/13 07:20:59;;;;;;;18.80;13.50;;;17.00;99.90;;;;;;4973582;28;20464;-58
2023/09/13 07:23:24;;;;;;;18.00;13.87;;;17.00;99.90;;;;;;4968819;28;20232;-58
2023/09/13 07:25:50;;;;;;;16.70;12.37;;;17.00;99.90;;;;;;4965366;28;20179;-57
2023/09/13 07:28:16;;;;;;;24.30;13.53;;;17.10;99.90;;;;;;4969574;28;20178;-58
2023/09/13 07:30:42;;;;;;;19.70;14.17;;;17.20;99.90;;;;;;4965486;28;20216;-57
2023/09/13 07:33:07;;;;;;;21.70;13.37;;;17.20;99.90;;;;;;4968969;28;20194;-58
2023/09/13 07:35:33;;;;;;;23.73;13.93;;;17.20;99.90;;;;;;4968864;28;20178;-57
2023/09/13 07:37:59;;;;;;;18.90;13.97;;;17.20;99.90;;;;;;4965223;28;20277;-57
2023/09/13 07:40:24;;;;;;;23.10;14.47;;;17.30;99.90;;;;;;4982647;28;20876;-58
2023/09/13 07:42:50;;;;;;;18.77;13.53;;;17.30;99.90;;;;;;4970041;28;20260;-57
2023/09/13 07:45:16;;;;;;;20.30;12.97;;;17.30;99.90;;;;;;4969797;28;20182;-57
2023/09/13 07:47:42;;;;;;;19.30;12.60;;;17.30;99.90;;;;;;4968578;28;20178;-58
2023/09/13 07:50:34;;;;;;;16.73;12.50;;;17.40;99.90;;;;;;4965438;28;20511;-58
2023/09/13 07:53:00;;;;;;;23.10;12.53;;;17.40;99.90;;;;;;4963143;28;20604;-58
2023/09/13 07:55:26;;;;;;;18.70;12.17;;;17.50;99.90;;;;;;4967311;28;20525;-58
2023/09/13 07:57:52;;;;;;;18.70;13.60;;;17.60;99.90;;;;;;4966173;28;20207;-58
2023/09/13 08:00:18;;;;;;;17.40;12.87;;;17.60;99.90;;;;;;4968357;28;21025;-57
2023/09/13 08:02:48;;;;;;;19.50;12.53;;;17.70;99.90;;;;;;4969718;28;20457;-58
2023/09/13 08:05:14;;;;;;;16.87;10.90;;;17.90;99.90;;;;;;4965457;28;20182;-58
2023/09/13 08:07:40;;;;;;;22.60;11.20;;;18.00;99.90;;;;;;4956414;28;20569;-57
2023/09/13 08:10:06;;;;;;;14.23;11.20;;;18.10;99.90;;;;;;4961831;28;20461;-58
2023/09/13 08:12:32;;;;;;;16.47;11.23;;;18.20;99.90;;;;;;4963538;28;20892;-58
2023/09/13 08:14:57;;;;;;;12.57;9.23;;;18.30;99.90;;;;;;4961695;28;20448;-58
2023/09/13 08:17:23;;;;;;;16.13;12.20;;;18.40;99.90;;;;;;4968001;28;20180;-58
2023/09/13 08:19:49;;;;;;;16.07;11.37;;;18.50;99.90;;;;;;4961847;28;20252;-59
2023/09/13 08:22:15;;;;;;;16.07;10.77;;;18.60;99.90;;;;;;4963199;28;20210;-58
2023/09/13 08:24:41;;;;;;;15.07;11.17;;;18.60;99.90;;;;;;4963322;28;20491;-57
2023/09/13 08:27:06;;;;;;;14.80;9.90;;;18.70;99.90;;;;;;4961691;28;20185;-58
2023/09/13 08:29:33;;;;;;;16.33;10.40;;;18.70;99.90;;;;;;4965142;28;20177;-58
2023/09/13 08:31:59;;;;;;;17.83;11.43;;;18.70;99.90;;;;;;4970303;28;20299;-59
2023/09/13 08:34:25;;;;;;;17.10;11.20;;;18.80;99.90;;;;;;4966116;28;20520;-58
2023/09/13 08:36:53;;;;;;;18.03;11.27;;;18.90;99.90;;;;;;4967433;28;20221;-58
2023/09/13 08:39:19;;;;;;;18.47;11.50;;;19.00;99.90;;;;;;4959643;28;21033;-58
2023/09/13 08:41:50;;;;;;;18.37;11.30;;;19.10;99.90;;;;;;4965145;28;20508;-59
2023/09/13 08:44:20;;;;;;;14.13;9.93;;;19.20;99.90;;;;;;4967363;28;20173;-58
2023/09/13 08:46:55;;;;;;;23.57;10.60;;;19.20;99.90;;;;;;4970179;28;20934;-58
2023/09/13 08:49:21;;;;;;;17.50;10.27;;;19.30;99.90;;;;;;4965736;28;20433;-58
2023/09/13 08:51:48;;;;;;;19.53;11.30;;;19.30;99.90;;;;;;4965554;28;20484;-58
2023/09/13 08:54:14;;;;;;;14.70;9.87;;;19.40;99.90;;;;;;4966655;28;20817;-58
2023/09/13 08:56:43;;;;;;;14.07;9.33;;;19.50;99.90;;;;;;4963820;28;20442;-58
2023/09/13 08:59:12;;;;;;;13.50;9.30;;;19.50;99.90;;;;;;4967446;28;20433;-58
2023/09/13 09:01:40;;;;;;;11.63;9.30;;;19.60;99.90;;;;;;4982564;28;20948;-58
2023/09/13 09:04:08;;;;;;;13.53;9.27;;;19.70;99.90;;;;;;4963329;28;20440;-60
2023/09/13 09:06:34;;;;;;;11.37;7.73;;;19.80;99.90;;;;;;4964444;28;20460;-57
2023/09/13 09:09:01;;;;;;;11.03;7.43;;;20.00;99.90;;;;;;4967437;28;20476;-56
2023/09/13 09:11:30;;;;;;;8.33;6.77;;;20.10;99.90;;;;;;4962355;28;20967;-58
2023/09/13 09:13:58;;;;;;;10.73;6.67;;;20.20;99.90;;;;;;4964193;28;20437;-58
2023/09/13 09:16:26;;;;;;;9.63;7.20;;;20.30;99.90;;;;;;4963080;28;20959;-58
2023/09/13 09:18:53;;;;;;;8.30;6.10;;;20.30;99.90;;;;;;4967515;28;20437;-58
2023/09/13 09:21:19;;;;;;;8.20;6.93;;;20.20;99.90;;;;;;4964087;28;20576;-57
2023/09/13 09:23:45;;;;;;;10.40;6.30;;;20.20;99.90;;;;;;4967350;28;20970;-57
2023/09/13 09:26:11;;;;;;;6.70;5.90;;;20.20;99.90;;;;;;4964915;28;20440;-58
2023/09/13 09:28:37;;;;;;;13.03;5.50;;;20.10;99.90;;;;;;4963640;28;20675;-58
2023/09/13 09:31:03;;;;;;;10.37;6.10;;;20.10;99.90;;;;;;4965478;28;20474;-58
2023/09/13 09:33:30;;;;;;;11.03;6.50;;;20.10;99.90;;;;;;4958698;28;20227;-58
2023/09/13 09:36:00;;;;;;;8.03;6.10;;;20.00;99.90;;;;;;4963760;28;20827;-58
2023/09/13 09:38:28;;;;;;;6.53;5.73;;;20.00;99.90;;;;;;4955276;28;20437;-58
2023/09/13 09:41:00;;;;;;;10.67;7.27;;;20.00;99.90;;;;;;4960987;28;20453;-58
2023/09/13 09:43:25;;;;;;;11.20;8.30;;;19.90;99.90;;;;;;4964695;28;20830;-58
2023/09/13 09:45:51;;;;;;;14.80;9.53;;;19.90;99.90;;;;;;4967637;28;20425;-58
2023/09/13 09:48:18;;;;;;;16.70;9.47;;;19.90;99.90;;;;;;4965032;28;21654;-58
2023/09/13 09:50:54;;;;;;;15.83;10.27;;;19.90;99.90;;;;;;4964077;28;20197;-58
2023/09/13 09:53:24;;;;;;;11.33;9.10;;;19.90;99.90;;;;;;4960639;28;20523;-58
2023/09/13 09:55:52;;;;;;;23.30;9.87;;;19.90;99.90;;;;;;4964946;28;20481;-58
2023/09/13 09:58:17;;;;;;;16.60;8.90;;;19.90;99.90;;;;;;4957866;28;20469;-58
2023/09/13 10:00:51;;;;;;;12.37;7.77;;;19.90;99.90;;;;;;4965278;28;20789;-58
2023/09/13 10:03:17;;;;;;;9.93;7.57;;;20.00;99.90;;;;;;4956934;28;20853;-58
2023/09/13 10:06:03;;;;;;;9.37;7.37;;;20.00;99.90;;;;;;4962229;28;20433;-58
2023/09/13 10:08:55;;;;;;;7.90;6.47;;;20.10;99.90;;;;;;4962256;28;20501;-58
2023/09/13 10:11:22;;;;;;;7.83;6.40;;;20.20;99.90;;;;;;4957085;28;21192;-58
2023/09/13 10:13:48;;;;;;;8.60;6.63;;;20.40;99.90;;;;;;4963357;28;20433;-58
2023/09/13 10:16:16;;;;;;;9.80;6.40;;;20.50;99.90;;;;;;4967929;28;20425;-58
2023/09/13 10:18:46;;;;;;;12.93;6.23;;;20.70;99.90;;;;;;4969181;28;20449;-58
2023/09/13 10:21:15;;;;;;;6.57;5.97;;;20.90;99.90;;;;;;4963954;28;20543;-59
2023/09/13 10:23:44;;;;;;;8.80;6.40;;;21.10;99.90;;;;;;4965810;28;20457;-58
2023/09/13 10:26:13;;;;;;;6.67;5.80;;;21.10;99.90;;;;;;4966158;28;20525;-58
2023/09/13 10:28:44;;;;;;;9.67;6.73;;;21.00;99.90;;;;;;4963239;28;20432;-58
2023/09/13 10:31:18;;;;;;;6.37;5.70;;;20.90;99.90;;;;;;4967540;28;20544;-58
2023/09/13 10:33:51;;;;;;;7.10;5.23;;;20.80;99.90;;;;;;4968922;28;20440;-55
2023/09/13 10:36:27;;;;;;;6.30;5.40;;;20.60;99.90;;;;;;4965728;28;20678;-58
2023/09/13 10:39:07;;;;;;;5.57;5.07;;;20.50;99.90;;;;;;4971899;28;20427;-58
2023/09/13 10:41:40;;;;;;;5.03;4.53;;;20.50;99.90;;;;;;4959858;28;20828;-58
2023/09/13 10:44:08;;;;;;;7.20;5.50;;;20.60;99.90;;;;;;4967598;28;21081;-58
2023/09/13 10:46:33;;;;;;;6.40;5.20;;;20.60;99.90;;;;;;4971270;28;20857;-58
2023/09/13 10:49:01;;;;;;;6.90;5.17;;;20.70;99.90;;;;;;4971547;28;20433;-58
2023/09/13 10:51:30;;;;;;;9.63;5.30;;;20.70;99.90;;;;;;4965785;28;20190;-57
2023/09/13 10:53:57;;;;;;;5.30;4.80;;;20.70;99.90;;;;;;4961535;28;20441;-58
2023/09/13 10:56:23;;;;;;;5.03;4.40;;;20.60;99.90;;;;;;4963840;28;20533;-59
2023/09/13 10:58:50;;;;;;;5.90;4.73;;;20.60;99.90;;;;;;4965944;28;20541;-59
2023/09/13 11:01:17;;;;;;;6.27;4.50;;;20.60;99.90;;;;;;4962144;28;20672;-58
2023/09/13 11:03:42;;;;;;;4.83;4.30;;;20.70;99.90;;;;;;4966190;28;20559;-58
2023/09/13 11:06:09;;;;;;;4.97;4.23;;;20.70;99.90;;;;;;4966183;28;20520;-58
2023/09/13 11:08:35;;;;;;;7.67;5.40;;;20.80;99.90;;;;;;4967666;28;20315;-58
2023/09/13 11:11:16;;;;;;;6.60;4.63;;;20.80;99.90;;;;;;4967905;28;21085;-59
2023/09/13 11:13:52;;;;;;;5.47;4.93;;;20.90;99.90;;;;;;4958289;28;20179;-59
2023/09/13 11:16:18;;;;;;;6.70;4.50;;;20.90;99.90;;;;;;4971770;28;20429;-59
2023/09/13 11:18:52;;;;;;;8.03;4.90;;;20.90;99.90;;;;;;4970607;28;20817;-59
2023/09/13 11:21:26;;;;;;;6.20;4.00;;;20.80;99.90;;;;;;4963706;28;20288;-59
2023/09/13 11:23:52;;;;;;;6.07;3.93;;;20.70;99.90;;;;;;4962848;28;20453;-58
2023/09/13 11:26:42;;;;;;;6.30;4.07;;;20.60;99.90;;;;;;4961764;28;20453;-58
2023/09/13 11:29:44;;;;;;;8.23;4.40;;;20.60;99.90;;;;;;4967415;28;20441;-58
2023/09/13 11:32:17;;;;;;;6.27;4.80;;;20.50;99.90;;;;;;4981009;28;20468;-58
2023/09/13 11:34:43;;;;;;;7.00;4.03;;;20.40;99.90;;;;;;4962307;28;20485;-58
2023/09/13 11:37:10;;;;;;;4.77;4.37;;;20.30;99.90;;;;;;4966469;28;20468;-58
2023/09/13 11:39:38;;;;;;;5.23;4.53;;;20.20;99.90;;;;;;4966982;28;20451;-58
2023/09/13 11:42:07;;;;;;;6.33;4.67;;;20.20;99.90;;;;;;4967619;28;20883;-58
2023/09/13 11:44:32;;;;;;;7.47;5.33;;;20.20;99.90;;;;;;4968779;28;20476;-59
2023/09/13 11:46:58;;;;;;;9.73;5.70;;;20.10;99.90;;;;;;4967455;28;20483;-58
2023/09/13 11:49:26;;;;;;;8.00;5.23;;;20.10;99.90;;;;;;4966861;28;20843;-58
2023/09/13 11:51:59;;;;;;;25.73;5.83;;;20.10;99.90;;;;;;4964893;28;20684;-58
2023/09/13 11:54:26;;;;;;;9.23;5.10;;;20.20;99.90;;;;;;4961169;28;20441;-58
2023/09/13 11:56:53;;;;;;;7.57;5.00;;;20.20;99.90;;;;;;4969655;28;20867;-58
2023/09/13 11:59:26;;;;;;;6.53;4.87;;;20.20;99.90;;;;;;4969777;28;20484;-58
2023/09/13 12:01:52;;;;;;;8.43;4.93;;;20.20;99.90;;;;;;4969050;28;20986;-58
2023/09/13 12:04:22;;;;;;;6.73;5.60;;;20.30;99.90;;;;;;4963569;28;20471;-58
2023/09/13 12:06:50;;;;;;;7.87;5.40;;;20.30;99.90;;;;;;4964724;28;20174;-58
2023/09/13 12:09:17;;;;;;;7.70;4.87;;;20.20;99.90;;;;;;4965592;28;20429;-58
2023/09/13 12:11:44;;;;;;;6.77;4.50;;;20.20;99.90;;;;;;4962328;28;20690;-57
2023/09/13 12:14:10;;;;;;;5.67;4.37;;;20.20;99.90;;;;;;4958463;28;20436;-58
2023/09/13 12:16:39;;;;;;;6.43;4.23;;;20.10;99.90;;;;;;4965841;28;20431;-58
2023/09/13 12:19:06;;;;;;;5.63;3.63;;;20.10;99.90;;;;;;4962909;28;20441;-58
2023/09/13 12:21:33;;;;;;;4.90;4.10;;;20.00;99.90;;;;;;4966554;28;20497;-57
2023/09/13 12:23:58;;;;;;;5.50;4.47;;;20.00;99.90;;;;;;4968030;28;20587;-57
2023/09/13 12:26:24;;;;;;;5.77;4.27;;;20.00;99.90;;;;;;4960267;28;20993;-58
2023/09/13 12:28:52;;;;;;;4.53;3.77;;;19.90;99.90;;;;;;4959393;28;20188;-56
2023/09/13 12:31:18;;;;;;;2.67;2.47;;;19.90;99.90;;;;;;4958060;28;20209;-56
2023/09/13 12:33:48;;;;;;;3.10;2.50;;;19.80;99.90;;;;;;4964060;28;20859;-56
2023/09/13 12:36:14;;;;;;;7.37;2.30;;;19.70;99.90;;;;;;4968867;28;20639;-56
2023/09/13 12:38:42;;;;;;;3.70;2.57;;;19.60;99.90;;;;;;4966355;28;20887;-56